Time;durP1;ratioP1;P1;durP2;ratioP2;P2;SDS_P1;SDS_P2;PMS_P1;PMS_P2;Temp;Humidity;BMP_temperature;BMP_pressure;BME280_temperature;BME280_humidity;BME280_pressure;Samples;Min_cycle;Max_cycle;Signal;HPM_P1;HPM_P2
2023/04/28 00:00:30;;;;;;;0.22;0.22;;;;;;;18.99;40.42;100947.00;5114280;28;20152;-48
2023/04/28 00:02:56;;;;;;;0.20;0.20;;;;;;;18.98;40.32;100943.44;5114142;28;20522;-49
2023/04/28 00:05:22;;;;;;;0.20;0.20;;;;;;;18.97;40.36;100935.44;5113888;27;20047;-47
2023/04/28 00:07:48;;;;;;;0.22;0.22;;;;;;;18.98;40.46;100928.81;5114129;27;20486;-48
2023/04/28 00:10:14;;;;;;;0.30;0.30;;;;;;;18.97;40.49;100933.50;5113944;28;20497;-48
2023/04/28 00:12:39;;;;;;;0.22;0.22;;;;;;;18.98;40.42;100923.28;5102154;28;20083;-48
2023/04/28 00:15:06;;;;;;;0.30;0.30;;;;;;;18.97;40.28;100919.69;5093121;28;20058;-49
2023/04/28 00:17:32;;;;;;;0.25;0.25;;;;;;;18.97;40.23;100927.97;5095521;28;20051;-49
2023/04/28 00:19:57;;;;;;;0.20;0.20;;;;;;;18.97;40.46;100919.69;5113481;28;20146;-51
2023/04/28 00:22:23;;;;;;;0.30;0.30;;;;;;;18.97;40.62;100921.63;5113634;28;20059;-48
2023/04/28 00:24:49;;;;;;;0.20;0.20;;;;;;;18.97;40.52;100916.94;5113720;28;20490;-48
2023/04/28 00:27:14;;;;;;;0.30;0.30;;;;;;;18.97;40.34;100916.94;5113363;28;20280;-49
2023/04/28 00:29:40;;;;;;;0.30;0.30;;;;;;;18.97;40.25;100907.84;5113903;28;20100;-46
2023/04/28 00:32:06;;;;;;;0.30;0.30;;;;;;;18.96;40.34;100907.00;5112547;28;20477;-49
2023/04/28 00:34:32;;;;;;;0.30;0.30;;;;;;;18.98;40.42;100906.72;5113065;28;20047;-49
2023/04/28 00:36:58;;;;;;;0.30;0.30;;;;;;;18.98;40.31;100910.31;5112248;28;20047;-50
2023/04/28 00:39:25;;;;;;;0.30;0.30;;;;;;;18.96;40.66;100908.94;5113539;28;20456;-49
2023/04/28 00:41:51;;;;;;;0.30;0.30;;;;;;;18.98;40.43;100906.72;5128814;27;20047;-48
2023/04/28 00:44:16;;;;;;;0.30;0.30;;;;;;;18.96;40.24;100892.41;5112661;27;20100;-48
2023/04/28 00:46:43;;;;;;;0.20;0.20;;;;;;;18.97;40.63;100894.88;5094456;28;20050;-48
2023/04/28 00:49:09;;;;;;;0.30;0.30;;;;;;;18.97;40.20;100892.09;5110074;28;20051;-50
2023/04/28 00:51:35;;;;;;;0.30;0.30;;;;;;;18.97;40.38;100891.28;5113878;28;20415;-50
2023/04/28 00:54:00;;;;;;;0.20;0.20;;;;;;;18.95;40.52;100891.53;5113353;28;20157;-50
2023/04/28 00:56:29;;;;;;;0.20;0.20;;;;;;;18.97;40.53;100894.03;5113261;28;20575;-48
2023/04/28 00:58:56;;;;;;;0.30;0.30;;;;;;;18.96;40.42;100895.16;5111269;28;20043;-51
2023/04/28 01:01:21;;;;;;;0.30;0.30;;;;;;;18.96;40.59;100890.47;5112045;28;20047;-50
2023/04/28 01:03:47;;;;;;;0.20;0.20;;;;;;;18.96;40.33;100890.47;5128968;27;20081;-49
2023/04/28 01:06:15;;;;;;;0.28;0.28;;;;;;;18.96;40.25;100881.34;5113169;28;20264;-50
2023/04/28 01:08:41;;;;;;;0.30;0.30;;;;;;;18.98;40.52;100881.88;5092862;28;20054;-47
2023/04/28 01:11:09;;;;;;;0.20;0.20;;;;;;;18.96;40.44;100870.31;5095210;28;20074;-48
2023/04/28 01:13:34;;;;;;;0.30;0.30;;;;;;;18.97;40.41;100875.53;5112635;28;20652;-49
2023/04/28 01:16:00;;;;;;;0.30;0.30;;;;;;;18.96;40.32;100873.91;5094408;28;20042;-48
2023/04/28 01:18:26;;;;;;;0.25;0.25;;;;;;;18.97;40.29;100874.72;5110645;28;20065;-50
2023/04/28 01:20:52;;;;;;;0.20;0.20;;;;;;;18.96;40.45;100882.19;5113094;28;20054;-48
2023/04/28 01:23:18;;;;;;;0.30;0.30;;;;;;;18.96;40.57;100878.59;5113497;28;20047;-47
2023/04/28 01:25:43;;;;;;;0.20;0.20;;;;;;;18.95;40.32;100872.22;5113058;28;20440;-48
2023/04/28 01:28:10;;;;;;;0.20;0.20;;;;;;;18.95;40.35;100874.97;5112780;28;20046;-50
2023/04/28 01:30:36;;;;;;;0.20;0.20;;;;;;;18.95;40.29;100877.75;5092441;28;20039;-48
2023/04/28 01:33:02;;;;;;;0.20;0.20;;;;;;;18.96;40.66;100881.34;5092755;28;20060;-48
2023/04/28 01:35:28;;;;;;;0.20;0.20;;;;;;;18.95;40.49;100874.97;5073241;28;20055;-48
2023/04/28 01:37:54;;;;;;;0.20;0.20;;;;;;;18.95;40.55;100872.22;5107082;28;20044;-49
2023/04/28 01:40:19;;;;;;;0.30;0.30;;;;;;;18.95;40.35;100869.47;5093055;28;20384;-50
2023/04/28 01:42:45;;;;;;;0.20;0.20;;;;;;;18.96;40.40;100873.06;5112004;28;20059;-50
2023/04/28 01:45:11;;;;;;;0.30;0.30;;;;;;;18.95;40.44;100874.16;5094115;28;20137;-50
2023/04/28 01:47:37;;;;;;;0.30;0.30;;;;;;;18.94;40.42;100861.47;5112299;28;20588;-48
2023/04/28 01:50:03;;;;;;;0.20;0.20;;;;;;;18.95;40.37;100866.69;5099725;28;20375;-48
2023/04/28 01:52:29;;;;;;;0.30;0.30;;;;;;;18.94;40.43;100862.28;5113361;27;20236;-50
2023/04/28 01:54:54;;;;;;;0.20;0.20;;;;;;;18.94;40.27;100856.78;5113124;27;20493;-48
2023/04/28 01:57:20;;;;;;;0.20;0.20;;;;;;;18.96;40.36;100845.47;5116668;28;20051;-49
2023/04/28 01:59:47;;;;;;;0.20;0.20;;;;;;;18.94;40.46;100840.22;5116193;28;20050;-50
2023/04/28 02:02:13;;;;;;;0.20;0.20;;;;;;;18.96;40.30;100842.72;5121649;27;20043;-47
2023/04/28 02:04:39;;;;;;;0.22;0.22;;;;;;;18.94;40.56;100840.22;5137246;27;20047;-48
2023/04/28 02:07:05;;;;;;;0.20;0.20;;;;;;;18.97;40.35;100844.38;5111117;28;20050;-49
2023/04/28 02:09:32;;;;;;;0.20;0.20;;;;;;;18.95;40.39;100838.28;5116138;28;20100;-47
2023/04/28 02:12:01;;;;;;;0.30;0.30;;;;;;;18.95;40.34;100830.00;5116720;28;20101;-48
2023/04/28 02:14:27;;;;;;;0.30;0.30;;;;;;;18.95;40.63;100833.59;5116335;28;20107;-48
2023/04/28 02:16:53;;;;;;;0.30;0.30;;;;;;;18.96;40.26;100828.91;5115297;28;20044;-48
2023/04/28 02:19:18;;;;;;;0.30;0.30;;;;;;;18.95;40.49;100827.25;5115975;28;20054;-47
2023/04/28 02:21:44;;;;;;;0.20;0.20;;;;;;;18.95;40.42;100833.59;5116306;28;20597;-48
2023/04/28 02:24:10;;;;;;;0.30;0.30;;;;;;;18.94;40.59;100837.47;5116319;28;20080;-49
2023/04/28 02:26:35;;;;;;;0.20;0.20;;;;;;;18.94;40.46;100833.88;5115933;28;20074;-50
2023/04/28 02:29:03;;;;;;;0.30;0.30;;;;;;;18.95;40.51;100843.81;5115852;28;20276;-48
2023/04/28 02:31:28;;;;;;;0.20;0.20;;;;;;;18.94;40.42;100850.44;5115647;28;20956;-48
2023/04/28 02:33:54;;;;;;;0.25;0.25;;;;;;;18.94;40.43;100842.97;5116490;28;20409;-48
2023/04/28 02:36:20;;;;;;;0.20;0.20;;;;;;;18.94;40.41;100840.22;5106028;27;20052;-48
2023/04/28 02:38:46;;;;;;;0.20;0.20;;;;;;;18.95;40.28;100838.28;5115819;28;20518;-47
2023/04/28 02:41:13;;;;;;;0.30;0.30;;;;;;;18.95;40.52;100835.53;5097931;28;20477;-47
2023/04/28 02:43:39;;;;;;;0.20;0.20;;;;;;;18.94;40.31;100847.69;5115763;28;20088;-47
2023/04/28 02:46:05;;;;;;;0.30;0.30;;;;;;;18.94;40.35;100839.41;5093958;28;20134;-50
2023/04/28 02:48:34;;;;;;;0.30;0.30;;;;;;;18.95;40.51;100835.53;5081460;28;20059;-46
2023/04/28 02:51:00;;;;;;;0.20;0.20;;;;;;;18.94;40.43;100831.13;5095918;28;20507;-48
2023/04/28 02:53:25;;;;;;;0.20;0.20;;;;;;;18.94;40.35;100831.94;5115919;28;20102;-46
2023/04/28 02:55:51;;;;;;;0.20;0.20;;;;;;;18.94;40.27;100820.09;5097770;28;20512;-46
2023/04/28 02:58:17;;;;;;;0.20;0.20;;;;;;;18.93;40.46;100816.50;5115580;28;20270;-47
2023/04/28 03:00:42;;;;;;;0.20;0.20;;;;;;;18.94;40.45;100809.03;5095869;28;20395;-49
2023/04/28 03:03:08;;;;;;;0.30;0.30;;;;;;;18.93;40.51;100816.50;5095056;28;20270;-46
2023/04/28 03:05:34;;;;;;;0.30;0.30;;;;;;;18.93;40.47;100822.03;5076726;28;20094;-47
2023/04/28 03:08:00;;;;;;;0.30;0.30;;;;;;;18.94;40.54;100817.31;5109798;28;20102;-48
2023/04/28 03:10:25;;;;;;;0.20;0.20;;;;;;;18.93;40.42;100822.03;5116896;27;20051;-46
2023/04/28 03:12:51;;;;;;;0.25;0.25;;;;;;;18.93;40.54;100816.50;5115000;28;20861;-46
2023/04/28 03:15:17;;;;;;;0.28;0.28;;;;;;;18.93;40.25;100819.25;5115498;28;20039;-47
2023/04/28 03:17:42;;;;;;;0.25;0.25;;;;;;;18.94;40.59;100818.16;5115457;28;20058;-49
2023/04/28 03:20:09;;;;;;;0.20;0.20;;;;;;;18.94;40.30;100811.81;5096483;28;20063;-46
2023/04/28 03:22:35;;;;;;;0.20;0.20;;;;;;;18.93;40.46;100812.91;5115328;28;20066;-50
2023/04/28 03:25:01;;;;;;;0.25;0.25;;;;;;;18.93;40.17;100799.13;5115112;28;20454;-48
2023/04/28 03:27:27;;;;;;;0.28;0.28;;;;;;;18.93;40.52;100790.84;5097066;28;20104;-45
2023/04/28 03:29:53;;;;;;;0.20;0.20;;;;;;;18.93;40.47;100783.38;5115099;28;20039;-47
2023/04/28 03:32:18;;;;;;;0.30;0.30;;;;;;;18.93;40.55;100783.38;5114531;28;20047;-46
2023/04/28 03:34:44;;;;;;;0.30;0.30;;;;;;;18.94;40.46;100774.00;5108919;28;20043;-48
2023/04/28 03:37:10;;;;;;;0.30;0.30;;;;;;;18.93;40.48;100771.53;5111528;28;20161;-46
2023/04/28 03:39:36;;;;;;;0.20;0.20;;;;;;;18.92;40.55;100767.94;5087189;28;20532;-48
2023/04/28 03:42:02;;;;;;;0.30;0.30;;;;;;;18.93;40.35;100764.06;5094550;28;20053;-47
2023/04/28 03:44:27;;;;;;;0.20;0.20;;;;;;;18.93;40.61;100753.03;5094213;28;20051;-50
2023/04/28 03:46:53;;;;;;;0.30;0.30;;;;;;;18.93;40.27;100754.97;5100194;28;20043;-49
2023/04/28 03:49:19;;;;;;;0.30;0.30;;;;;;;18.93;40.29;100744.75;5114743;28;20122;-47
2023/04/28 03:51:44;;;;;;;0.30;0.30;;;;;;;18.93;40.28;100738.41;5114693;28;20447;-48
2023/04/28 03:54:10;;;;;;;0.30;0.30;;;;;;;18.92;40.38;100723.78;5094502;28;20048;-49
2023/04/28 03:56:36;;;;;;;0.20;0.20;;;;;;;18.92;40.27;100718.28;5097350;28;20054;-46
2023/04/28 03:59:02;;;;;;;0.30;0.30;;;;;;;18.91;40.32;100713.03;5092806;28;20611;-48
2023/04/28 04:01:28;;;;;;;0.20;0.20;;;;;;;18.91;40.27;100713.03;5094886;28;20067;-47
2023/04/28 04:03:53;;;;;;;0.20;0.20;;;;;;;18.91;40.55;100710.25;5094352;28;20044;-46
2023/04/28 04:06:20;;;;;;;0.20;0.20;;;;;;;18.92;40.31;100721.03;5094189;28;20324;-46
2023/04/28 04:08:46;;;;;;;0.20;0.20;;;;;;;18.93;40.47;100713.56;5114662;28;20044;-45
2023/04/28 04:11:11;;;;;;;0.30;0.30;;;;;;;18.93;40.53;100702.53;5114637;28;20043;-47
2023/04/28 04:13:37;;;;;;;0.20;0.20;;;;;;;18.93;40.55;100705.28;5114434;28;20051;-47
2023/04/28 04:16:03;;;;;;;0.20;0.20;;;;;;;18.92;40.38;100721.03;5114194;28;20153;-46
2023/04/28 04:18:29;;;;;;;0.20;0.20;;;;;;;18.92;40.32;100721.03;5113539;27;20058;-46
2023/04/28 04:20:56;;;;;;;0.30;0.30;;;;;;;18.91;40.63;100719.38;5101026;28;20047;-48
2023/04/28 04:23:22;;;;;;;0.30;0.30;;;;;;;18.93;40.48;100727.38;5093802;28;20078;-46
2023/04/28 04:25:48;;;;;;;0.30;0.30;;;;;;;18.91;40.59;100727.66;5094091;28;20167;-47
2023/04/28 04:28:14;;;;;;;0.30;0.30;;;;;;;18.91;40.29;100726.81;5082455;28;20090;-47
2023/04/28 04:30:40;;;;;;;0.30;0.30;;;;;;;18.91;40.57;100719.38;5110561;27;20047;-45
2023/04/28 04:33:05;;;;;;;0.28;0.28;;;;;;;18.92;40.28;100720.22;5112507;27;20159;-48
2023/04/28 04:35:31;;;;;;;0.22;0.22;;;;;;;18.91;40.52;100718.53;5111801;27;20374;-47
2023/04/28 04:37:57;;;;;;;0.20;0.20;;;;;;;18.91;40.50;100722.16;5114188;28;20054;-47
2023/04/28 04:40:23;;;;;;;0.30;0.30;;;;;;;18.91;40.35;100719.38;5095800;28;20348;-47
2023/04/28 04:42:48;;;;;;;0.30;0.30;;;;;;;18.90;40.13;100709.44;5114065;28;20054;-49
2023/04/28 04:45:14;;;;;;;0.30;0.30;;;;;;;18.91;40.33;100713.88;5113590;28;20057;-47
2023/04/28 04:47:40;;;;;;;0.20;0.20;;;;;;;18.91;40.39;100710.25;5113257;28;20047;-46
2023/04/28 04:50:06;;;;;;;0.22;0.22;;;;;;;18.91;40.31;100716.63;5099033;28;20126;-47
2023/04/28 04:52:32;;;;;;;0.20;0.20;;;;;;;18.90;40.32;100714.97;5094131;28;20039;-46
2023/04/28 04:54:59;;;;;;;0.20;0.20;;;;;;;18.90;40.44;100720.47;5107056;28;20082;-49
2023/04/28 04:57:24;;;;;;;0.30;0.30;;;;;;;18.91;40.31;100722.16;5113294;28;20491;-48
2023/04/28 04:59:50;;;;;;;0.20;0.20;;;;;;;18.90;40.37;100726.00;5088034;28;20047;-47
2023/04/28 05:02:16;;;;;;;0.30;0.30;;;;;;;18.90;40.44;100731.50;5104309;28;20260;-46
2023/04/28 05:04:42;;;;;;;0.20;0.20;;;;;;;18.90;40.56;100728.75;5113325;27;20079;-45
2023/04/28 05:07:07;;;;;;;0.20;0.20;;;;;;;18.90;40.28;100734.28;5110057;27;20166;-46
2023/04/28 05:09:33;;;;;;;0.20;0.20;;;;;;;18.89;40.39;100729.88;5106350;28;20092;-49
2023/04/28 05:11:59;;;;;;;0.30;0.30;;;;;;;18.91;40.48;100732.34;5098542;28;20059;-48
2023/04/28 05:14:25;;;;;;;0.30;0.30;;;;;;;18.89;40.70;100724.34;5107295;28;20516;-46
2023/04/28 05:16:51;;;;;;;0.20;0.20;;;;;;;18.89;40.58;100712.50;5086989;28;20050;-46
2023/04/28 05:19:17;;;;;;;0.20;0.20;;;;;;;18.89;40.57;100715.25;5090257;28;20051;-46
2023/04/28 05:21:42;;;;;;;0.30;0.30;;;;;;;18.90;40.45;100714.97;5112466;28;20047;-46
2023/04/28 05:24:08;;;;;;;0.30;0.30;;;;;;;18.90;40.71;100722.41;5093203;28;20490;-47
2023/04/28 05:26:35;;;;;;;0.30;0.30;;;;;;;18.90;40.33;100714.13;5107401;28;20251;-46
2023/04/28 05:29:00;;;;;;;0.20;0.20;;;;;;;18.89;40.32;100715.25;5105435;27;20043;-47
2023/04/28 05:31:26;;;;;;;0.20;0.20;;;;;;;18.89;40.47;100713.31;5114057;28;20043;-45
2023/04/28 05:33:52;;;;;;;0.30;0.30;;;;;;;18.89;40.33;100705.03;5113142;27;20296;-46
2023/04/28 05:36:17;;;;;;;0.20;0.20;;;;;;;18.90;40.37;100706.69;5112561;28;20039;-47
2023/04/28 05:38:43;;;;;;;0.30;0.30;;;;;;;18.90;40.58;100698.41;5113993;28;20053;-49
2023/04/28 05:41:09;;;;;;;0.20;0.20;;;;;;;18.90;40.57;100700.34;5111135;28;20313;-46
2023/04/28 05:43:35;;;;;;;0.30;0.30;;;;;;;18.89;40.33;100694.00;5112830;28;20047;-46
2023/04/28 05:46:00;;;;;;;0.25;0.25;;;;;;;18.89;40.46;100704.22;5112446;28;20055;-47
2023/04/28 05:48:26;;;;;;;0.30;0.30;;;;;;;18.89;40.36;100696.75;5108694;28;20050;-47
2023/04/28 05:50:52;;;;;;;0.20;0.20;;;;;;;18.89;40.70;100685.72;5105324;28;20148;-50
2023/04/28 05:53:18;;;;;;;0.25;0.25;;;;;;;18.90;40.45;100681.03;5106954;28;20039;-43
2023/04/28 05:55:44;;;;;;;0.20;0.20;;;;;;;18.90;40.53;100687.34;5092885;28;20047;-45
2023/04/28 05:58:10;;;;;;;0.30;0.30;;;;;;;18.90;40.40;100681.03;5098841;28;20062;-44
2023/04/28 06:00:36;;;;;;;0.20;0.20;;;;;;;18.90;40.57;100672.75;5099535;27;20408;-43
2023/04/28 06:03:01;;;;;;;0.28;0.28;;;;;;;18.89;40.47;100671.09;5096369;27;20079;-45
2023/04/28 06:05:27;;;;;;;0.20;0.20;;;;;;;18.90;40.45;100669.97;5102012;28;20053;-44
2023/04/28 06:07:54;;;;;;;0.30;0.30;;;;;;;18.90;40.38;100672.75;5100020;27;20043;-45
2023/04/28 06:10:21;;;;;;;0.30;0.30;;;;;;;18.90;40.71;100675.50;5100933;27;20050;-45
2023/04/28 06:12:47;;;;;;;0.30;0.30;;;;;;;18.89;40.58;100680.19;5105001;27;20360;-44
2023/04/28 06:15:12;;;;;;;0.30;0.30;;;;;;;18.90;40.48;100675.50;5105732;27;20419;-43
2023/04/28 06:17:38;;;;;;;0.20;0.20;;;;;;;18.90;40.43;100658.94;5106847;27;20053;-45
2023/04/28 06:20:05;;;;;;;0.30;0.30;;;;;;;18.90;40.46;100665.28;5108262;27;20045;-46
2023/04/28 06:22:31;;;;;;;0.30;0.30;;;;;;;18.89;40.69;100665.59;5109023;27;20059;-46
2023/04/28 06:24:56;;;;;;;0.30;0.30;;;;;;;18.90;40.77;100678.25;5109397;27;20049;-47
2023/04/28 06:27:22;;;;;;;0.30;0.30;;;;;;;18.89;40.60;100694.00;5112331;27;20186;-46
2023/04/28 06:29:48;;;;;;;0.30;0.30;;;;;;;18.91;40.78;100688.19;5112690;27;20047;-46
2023/04/28 06:32:13;;;;;;;0.30;0.30;;;;;;;18.91;40.66;100683.53;5111495;27;20039;-45
2023/04/28 06:34:39;;;;;;;0.30;0.30;;;;;;;18.90;40.66;100681.03;5107018;28;20502;-45
2023/04/28 06:37:05;;;;;;;0.20;0.20;;;;;;;18.91;40.67;100682.66;5107153;27;20048;-46
2023/04/28 06:39:30;;;;;;;0.20;0.20;;;;;;;18.89;40.65;100680.19;5109733;27;20051;-45
2023/04/28 06:41:56;;;;;;;0.30;0.30;;;;;;;18.90;40.58;100681.84;5103839;27;20482;-47
2023/04/28 06:44:22;;;;;;;0.28;0.28;;;;;;;18.90;40.61;100679.09;5097369;27;20066;-47
2023/04/28 06:46:47;;;;;;;0.20;0.20;;;;;;;18.89;40.42;100666.41;5110073;27;20031;-46
2023/04/28 06:49:13;;;;;;;0.30;0.30;;;;;;;18.90;40.60;100669.97;5103486;27;20054;-44
2023/04/28 06:51:39;;;;;;;0.20;0.20;;;;;;;18.90;40.73;100672.75;5079753;28;20047;-46
2023/04/28 06:54:05;;;;;;;0.30;0.30;;;;;;;18.89;40.43;100680.19;5072051;28;20043;-46
2023/04/28 06:56:31;;;;;;;0.30;0.30;;;;;;;18.89;40.65;100685.72;5097626;27;20355;-46
2023/04/28 06:58:57;;;;;;;0.20;0.20;;;;;;;18.89;40.42;100677.44;5098136;27;20047;-48
2023/04/28 07:01:24;;;;;;;0.20;0.20;;;;;;;18.90;40.73;100667.22;5069946;27;20043;-48
2023/04/28 07:03:50;;;;;;;0.40;0.40;;;;;;;18.90;40.91;100683.78;5079036;27;20103;-47
2023/04/28 07:06:16;;;;;;;0.30;0.30;;;;;;;18.90;40.65;100687.34;5081363;27;20715;-45
2023/04/28 07:08:42;;;;;;;0.30;0.30;;;;;;;18.90;40.99;100695.63;5077399;27;20071;-45
2023/04/28 07:11:08;;;;;;;0.20;0.20;;;;;;;18.90;40.79;100690.13;5087627;27;20131;-47
2023/04/28 07:13:34;;;;;;;0.20;0.20;;;;;;;18.90;40.65;100689.31;5082820;27;20109;-45
2023/04/28 07:16:00;;;;;;;0.30;0.30;;;;;;;18.89;40.93;100685.72;5091408;27;20131;-45
2023/04/28 07:18:25;;;;;;;0.30;0.30;;;;;;;18.89;40.58;100680.19;5096511;27;20674;-47
2023/04/28 07:20:51;;;;;;;0.30;0.30;;;;;;;18.89;40.80;100671.94;5102735;27;20039;-46
2023/04/28 07:23:17;;;;;;;0.20;0.20;;;;;;;18.91;40.61;100679.91;5098538;27;20095;-45
2023/04/28 07:25:42;;;;;;;0.28;0.28;;;;;;;18.90;40.85;100681.03;5092880;27;20057;-46
2023/04/28 07:28:08;;;;;;;0.20;0.20;;;;;;;18.90;40.76;100679.09;5095119;27;20047;-47
2023/04/28 07:30:34;;;;;;;0.20;0.20;;;;;;;18.90;40.84;100681.84;5102172;27;20064;-48
2023/04/28 07:33:01;;;;;;;0.20;0.20;;;;;;;18.89;40.88;100688.47;5085860;28;20507;-46
2023/04/28 07:35:27;;;;;;;0.20;0.20;;;;;;;18.90;40.64;100692.88;5095792;27;20047;-47
2023/04/28 07:37:53;;;;;;;0.20;0.20;;;;;;;18.90;40.70;100692.06;5079284;28;20205;-45
2023/04/28 07:40:20;;;;;;;0.20;0.20;;;;;;;18.90;40.80;100697.56;5084556;28;20090;-47
2023/04/28 07:42:46;;;;;;;0.20;0.20;;;;;;;18.90;40.58;100694.81;5084337;28;20043;-46
2023/04/28 07:45:11;;;;;;;0.20;0.20;;;;;;;18.90;40.64;100690.13;5109402;27;20063;-46
2023/04/28 07:47:37;;;;;;;0.20;0.20;;;;;;;18.89;40.91;100682.97;5105841;27;20039;-45
2023/04/28 07:50:05;;;;;;;0.30;0.30;;;;;;;18.91;42.05;100677.16;5100555;27;20047;-45
2023/04/28 07:52:31;;;;;;;0.20;0.20;;;;;;;18.95;41.81;100681.00;5088466;27;20287;-46
2023/04/28 07:54:58;;;;;;;0.30;0.30;;;;;;;18.95;41.75;100678.22;5100367;27;20715;-46
2023/04/28 07:57:23;;;;;;;0.30;0.30;;;;;;;18.93;41.72;100684.03;5097812;27;20384;-47
2023/04/28 07:59:49;;;;;;;0.30;0.30;;;;;;;18.93;41.49;100684.03;5094369;27;20489;-46
2023/04/28 08:02:15;;;;;;;0.30;0.30;;;;;;;18.92;41.29;100673.31;5073806;28;20043;-48
2023/04/28 08:04:41;;;;;;;0.20;0.20;;;;;;;18.93;41.43;100677.69;5099700;27;20215;-47
2023/04/28 08:07:08;;;;;;;0.30;0.30;;;;;;;18.93;41.24;100672.19;5085079;27;21481;-45
2023/04/28 08:09:34;;;;;;;0.20;0.20;;;;;;;18.91;41.39;100664.19;5073346;27;20361;-45
2023/04/28 08:12:00;;;;;;;0.20;0.20;;;;;;;18.90;41.28;100668.03;5065334;27;20340;-48
2023/04/28 08:14:26;;;;;;;0.20;0.20;;;;;;;18.90;41.36;100664.47;5078905;27;20693;-46
2023/04/28 08:16:52;;;;;;;0.30;0.30;;;;;;;18.91;41.29;100660.59;5091129;27;20047;-46
2023/04/28 08:19:18;;;;;;;0.20;0.20;;;;;;;18.89;42.19;100666.41;5081272;28;20043;-50
2023/04/28 08:21:44;;;;;;;0.20;0.20;;;;;;;18.93;42.52;100669.44;5095377;27;20050;-46
2023/04/28 08:24:10;;;;;;;0.20;0.20;;;;;;;18.94;42.67;100666.38;5094453;27;20039;-46
2023/04/28 08:26:36;;;;;;;0.20;0.20;;;;;;;18.94;42.79;100668.31;5092041;27;20981;-46
2023/04/28 08:29:02;;;;;;;0.20;0.20;;;;;;;18.99;42.65;100673.78;5082439;28;20154;-47
2023/04/28 08:31:28;;;;;;;0.30;0.30;;;;;;;18.99;42.74;100669.09;5097582;27;20508;-47
2023/04/28 08:33:54;;;;;;;0.20;0.20;;;;;;;18.99;42.15;100676.53;5092900;27;20860;-48
2023/04/28 08:36:22;;;;;;;0.20;0.20;;;;;;;19.03;43.21;100672.09;5070128;28;20043;-46
2023/04/28 08:38:48;;;;;;;0.30;0.30;;;;;;;19.03;42.87;100680.38;5078442;27;20066;-46
2023/04/28 08:41:15;;;;;;;0.20;0.20;;;;;;;19.00;42.81;100679.03;5076606;27;20074;-49
2023/04/28 08:43:42;;;;;;;0.20;0.20;;;;;;;18.99;42.50;100682.88;5094002;27;20687;-47
2023/04/28 08:46:08;;;;;;;0.30;0.30;;;;;;;18.99;42.70;100688.41;5093799;27;20047;-46
2023/04/28 08:48:44;;;;;;;0.40;0.40;;;;;;;19.00;42.43;100687.31;5100277;27;20698;-46
2023/04/28 08:51:15;;;;;;;0.30;0.30;;;;;;;18.99;42.40;100685.66;5095440;27;20047;-46
2023/04/28 08:53:44;;;;;;;0.20;0.20;;;;;;;19.00;42.47;100690.09;5078404;28;20043;-47
2023/04/28 08:56:33;;;;;;;0.20;0.20;;;;;;;19.00;42.36;100690.09;5086185;28;20039;-46
2023/04/28 08:59:01;;;;;;;0.30;0.30;;;;;;;19.01;42.42;100682.63;5089255;27;20130;-46
2023/04/28 09:01:27;;;;;;;0.22;0.22;;;;;;;19.00;42.50;100681.81;5102211;27;20035;-46
2023/04/28 09:03:53;;;;;;;0.22;0.22;;;;;;;19.02;42.36;100693.38;5103731;27;20092;-46
2023/04/28 09:06:20;;;;;;;0.20;0.20;;;;;;;19.02;42.57;100682.31;5104690;27;20415;-45
2023/04/28 09:08:46;;;;;;;0.20;0.20;;;;;;;19.01;42.57;100675.16;5108187;27;20054;-47
2023/04/28 09:11:12;;;;;;;0.20;0.20;;;;;;;19.02;42.39;100681.50;5107032;27;20039;-47
2023/04/28 09:13:38;;;;;;;0.20;0.20;;;;;;;19.02;42.53;100674.06;5103406;28;20047;-47
2023/04/28 09:16:06;;;;;;;0.30;0.30;;;;;;;19.03;42.29;100680.38;5087672;27;20923;-47
2023/04/28 09:18:32;;;;;;;0.25;0.25;;;;;;;19.03;42.21;100681.22;5092486;28;20039;-48
2023/04/28 09:21:06;;;;;;;0.20;0.20;;;;;;;19.03;42.15;100674.88;5102956;28;20443;-46
2023/04/28 09:23:32;;;;;;;0.30;0.30;;;;;;;19.03;42.20;100670.16;5087589;28;20043;-46
2023/04/28 09:26:03;;;;;;;0.20;0.20;;;;;;;19.03;42.40;100672.94;5072467;27;20046;-48
2023/04/28 09:28:31;;;;;;;0.20;0.20;;;;;;;19.04;42.36;100671.84;5087252;28;20055;-47
2023/04/28 09:30:57;;;;;;;0.20;0.20;;;;;;;19.04;42.30;100669.09;5099631;27;20124;-47
2023/04/28 09:33:22;;;;;;;0.25;0.25;;;;;;;19.04;42.26;100674.59;5098044;27;20104;-46
2023/04/28 09:35:48;;;;;;;0.20;0.20;;;;;;;19.03;42.09;100672.94;5080130;28;20133;-46
2023/04/28 09:38:15;;;;;;;0.25;0.25;;;;;;;19.03;42.50;100672.94;5090569;27;20236;-46
2023/04/28 09:40:58;;;;;;;0.20;0.20;;;;;;;19.03;42.19;100674.88;5063374;28;20051;-47
2023/04/28 09:43:27;;;;;;;0.20;0.20;;;;;;;19.04;42.12;100676.50;5060625;27;20055;-48
2023/04/28 09:45:54;;;;;;;0.20;0.20;;;;;;;19.04;42.21;100677.38;5071642;27;20043;-45
2023/04/28 09:48:36;;;;;;;0.20;0.20;;;;;;;19.04;42.13;100688.41;5093265;27;20043;-46
2023/04/28 09:51:04;;;;;;;0.30;0.30;;;;;;;19.05;42.43;100675.44;5094739;27;20320;-45
2023/04/28 09:53:30;;;;;;;0.20;0.20;;;;;;;19.04;42.02;100677.38;5076227;28;20074;-47
2023/04/28 09:55:58;;;;;;;0.20;0.20;;;;;;;19.04;42.41;100671.84;5068491;28;20066;-48
2023/04/28 09:58:25;;;;;;;0.20;0.20;;;;;;;19.04;42.38;100676.50;5078161;28;20417;-47
2023/04/28 10:00:53;;;;;;;0.20;0.20;;;;;;;19.04;42.23;100666.31;5101421;27;20585;-48
2023/04/28 10:03:22;;;;;;;0.20;0.20;;;;;;;19.04;42.18;100671.84;5103895;27;20040;-45
2023/04/28 10:05:52;;;;;;;0.30;0.30;;;;;;;19.04;42.40;100671.00;5092856;27;20058;-47
2023/04/28 10:08:19;;;;;;;0.20;0.20;;;;;;;19.05;42.48;100678.19;5065178;27;20086;-51
2023/04/28 10:10:47;;;;;;;0.30;0.30;;;;;;;19.04;42.23;100668.22;5097639;28;20112;-46
2023/04/28 10:13:16;;;;;;;0.20;0.20;;;;;;;19.05;42.14;100669.91;5087201;27;20071;-47
2023/04/28 10:15:41;;;;;;;;;;;;;;;19.04;42.27;100677.38;5076769;28;20526;-46
2023/04/28 10:18:07;;;;;;;0.30;0.30;;;;;;;19.02;42.14;100663.00;5102117;27;20012;-46
2023/04/28 10:20:33;;;;;;;0.20;0.20;;;;;;;19.05;42.25;100669.91;5103709;28;20432;-45
2023/04/28 10:23:16;;;;;;;0.30;0.30;;;;;;;19.03;42.38;100670.16;5104299;28;20055;-46
2023/04/28 10:25:42;;;;;;;0.20;0.20;;;;;;;19.02;42.16;100676.81;5096744;27;20051;-45
2023/04/28 10:28:08;;;;;;;0.20;0.20;;;;;;;19.02;42.64;100663.00;5089747;28;20066;-47
2023/04/28 10:30:34;;;;;;;0.20;0.20;;;;;;;19.07;43.00;100666.84;5108178;28;20458;-44
2023/04/28 10:33:16;;;;;;;0.20;0.20;;;;;;;19.11;46.42;100670.69;5088836;27;20361;-45
2023/04/28 10:35:44;;;;;;;0.20;0.20;;;;;;;19.13;45.46;100671.22;5103062;27;20462;-46
2023/04/28 10:38:13;;;;;;;0.30;0.30;;;;;;;19.12;46.08;100675.91;5087508;28;20090;-46
2023/04/28 10:40:42;;;;;;;0.20;0.20;;;;;;;19.13;44.93;100668.44;5081539;27;20043;-48
2023/04/28 10:43:09;;;;;;;0.20;0.20;;;;;;;19.11;46.95;100668.75;5067508;28;20101;-48
2023/04/28 10:51:11;;;;;;;0.20;0.20;;;;;;;19.19;44.55;100672.84;5136555;27;20521;-47
2023/04/28 10:56:23;;;;;;;0.20;0.20;;;;;;;19.15;44.49;100658.78;5135771;27;20620;-46
2023/04/28 10:58:51;;;;;;;0.20;0.20;;;;;;;19.14;44.34;100661.84;5100556;27;20050;-45
2023/04/28 11:01:23;;;;;;;0.20;0.20;;;;;;;19.14;44.31;100667.34;5104895;27;20649;-44
2023/04/28 11:03:58;;;;;;;0.20;0.20;;;;;;;19.15;44.68;100660.72;5113875;27;20051;-47
2023/04/28 11:06:31;;;;;;;0.40;0.40;;;;;;;19.14;45.38;100659.91;5095119;27;20047;-44
2023/04/28 11:09:02;;;;;;;0.20;0.20;;;;;;;19.14;44.23;100656.31;5102958;27;20069;-46
2023/04/28 11:11:33;;;;;;;0.20;0.20;;;;;;;19.14;44.31;100657.13;5121523;27;20565;-46
2023/04/28 11:16:59;;;;;;;0.20;0.20;;;;;;;19.14;44.18;100659.91;5139153;27;20601;-43
2023/04/28 11:19:28;;;;;;;0.20;0.20;;;;;;;19.13;44.01;100652.75;5104350;27;20050;-44
2023/04/28 11:21:55;;;;;;;0.20;0.20;;;;;;;19.16;46.23;100654.09;5102016;27;20047;-46
2023/04/28 11:24:21;;;;;;;0.20;0.20;;;;;;;19.16;44.60;100648.56;5105897;27;20111;-44
2023/04/28 11:26:48;;;;;;;0.20;0.20;;;;;;;19.16;44.16;100648.56;5124073;27;20047;-46
2023/04/28 11:29:14;;;;;;;0.30;0.30;;;;;;;19.16;44.50;100645.81;5103259;27;20046;-45
2023/04/28 11:31:41;;;;;;;0.30;0.30;;;;;;;19.17;46.42;100645.53;5124482;27;20378;-45